PWSweather.com
Personal Weather Stations
Station Observations
ISYDDANM23
Felsted, AabenraaDK 6200

FelstedAabenraaDK 6200

Lat: 54.977066, Lon: 9.507192

Elevation: 135

Station Type: Davis Vantage Pro 2 Plus 24H

http://www.valkaer.dk

High Low Average
Temperature 57.8°F14.3°C 45.6°F7.6°C 55.1°F12.8°C
Dew Point 55.2°F12.9°C 37.3°F2.9°C 50.7°F10.4°C
Winds 13.8 mph 22.2 kmh 2.3 mph 3.7 kmh 8.0 mph SW12.9 kmh SW
Wind Gusts 19.6 mph31.5 kmh 3.5 mph5.6 kmh 12.0 mph19.3 kmh
Humidity 92% 64% 86%
Pressure 30.14 in1020.7 mb 30.01 in1016.3 mb -
Precipitation 0.07 in1.8 mm - -
Hour Temp Dew Point Humidity Winds Wind Gusts Pressure Precip Precip Rate Daily Precip Total
12:00 AM 45.7°F7.6°C 37.9°F3.3°C 74% 3.5 mph SE5.6 kmh SE 4.6 mph7.4 kmh 30.14 in1020.7 mb - 0.00 in0.0 mm 0.00 in0.0 mm
12:10 AM 45.7°F7.6°C 37.9°F3.3°C 74% 2.3 mph SSE3.7 kmh SSE 3.5 mph5.6 kmh 30.14 in1020.7 mb - 0.00 in0.0 mm 0.00 in0.0 mm
12:15 AM 45.6°F7.6°C 37.8°F3.2°C 74% 3.5 mph SE5.6 kmh SE 4.6 mph7.4 kmh 30.14 in1020.7 mb - 0.00 in0.0 mm 0.00 in0.0 mm
12:20 AM 45.9°F7.7°C 38.1°F3.4°C 74% 3.5 mph SE5.6 kmh SE 4.6 mph7.4 kmh 30.14 in1020.7 mb - 0.00 in0.0 mm 0.00 in0.0 mm
12:25 AM 46.1°F7.8°C 38.3°F3.5°C 74% 2.3 mph SE3.7 kmh SE 4.6 mph7.4 kmh 30.14 in1020.7 mb - 0.00 in0.0 mm 0.00 in0.0 mm
12:30 AM 46.2°F7.9°C 38.4°F3.6°C 74% 2.3 mph SE3.7 kmh SE 6.9 mph11.1 kmh 30.14 in1020.7 mb - 0.00 in0.0 mm 0.00 in0.0 mm
12:35 AM 46.3°F7.9°C 38.5°F3.6°C 74% 3.5 mph SE5.6 kmh SE 8.1 mph13.0 kmh 30.14 in1020.7 mb - 0.00 in0.0 mm 0.00 in0.0 mm
12:40 AM 46.6°F8.1°C 38.8°F3.8°C 74% 4.6 mph SE7.4 kmh SE 3.5 mph5.6 kmh 30.13 in1020.3 mb - 0.00 in0.0 mm 0.00 in0.0 mm
12:45 AM 46.4°F8.0°C 38.6°F3.7°C 74% 3.5 mph SE5.6 kmh SE 4.6 mph7.4 kmh 30.13 in1020.3 mb - 0.00 in0.0 mm 0.00 in0.0 mm
12:50 AM 46.2°F7.9°C 38.7°F3.7°C 75% 2.3 mph SE3.7 kmh SE 4.6 mph7.4 kmh 30.13 in1020.3 mb - 0.00 in0.0 mm 0.00 in0.0 mm
12:55 AM 46.3°F7.9°C 38.8°F3.8°C 75% 3.5 mph SE5.6 kmh SE 3.5 mph5.6 kmh 30.13 in1020.3 mb - 0.00 in0.0 mm 0.00 in0.0 mm
01:00 AM 46.6°F8.1°C 38.8°F3.8°C 74% 3.5 mph SE5.6 kmh SE 4.6 mph7.4 kmh 30.13 in1020.3 mb - 0.00 in0.0 mm 0.00 in0.0 mm
01:10 AM 46.8°F8.2°C 38.9°F3.8°C 74% 2.3 mph SE3.7 kmh SE 3.5 mph5.6 kmh 30.13 in1020.3 mb - 0.00 in0.0 mm 0.00 in0.0 mm
01:20 AM 46.4°F8.0°C 38.9°F3.8°C 75% 3.5 mph SE5.6 kmh SE 3.5 mph5.6 kmh 30.13 in1020.3 mb - 0.00 in0.0 mm 0.00 in0.0 mm
01:25 AM 46.6°F8.1°C 38.4°F3.6°C 73% 2.3 mph SE3.7 kmh SE 6.9 mph11.1 kmh 30.13 in1020.3 mb - 0.00 in0.0 mm 0.00 in0.0 mm
01:50 AM 48.1°F8.9°C 37.3°F2.9°C 66% 4.6 mph SSE7.4 kmh SSE 8.1 mph13.0 kmh 30.12 in1020.0 mb - 0.00 in0.0 mm 0.00 in0.0 mm
05:10 AM 52.5°F11.4°C 41.1°F5.1°C 65% 8.1 mph S13.0 kmh S 9.2 mph14.8 kmh 30.04 in1017.3 mb - 0.00 in0.0 mm 0.00 in0.0 mm
05:15 AM 52.7°F11.5°C 41.2°F5.1°C 65% 5.8 mph SSE9.3 kmh SSE 10.4 mph16.7 kmh 30.05 in1017.6 mb - 0.00 in0.0 mm 0.00 in0.0 mm
05:20 AM 52.8°F11.6°C 41.4°F5.2°C 65% 8.1 mph S13.0 kmh S 12.7 mph20.4 kmh 30.04 in1017.3 mb - 0.00 in0.0 mm 0.00 in0.0 mm
05:25 AM 53.0°F11.7°C 41.1°F5.1°C 64% 6.9 mph S11.1 kmh S 8.1 mph13.0 kmh 30.04 in1017.3 mb - 0.00 in0.0 mm 0.00 in0.0 mm
05:30 AM 53.1°F11.7°C 41.6°F5.3°C 65% 6.9 mph SSE11.1 kmh SSE 10.4 mph16.7 kmh 30.04 in1017.3 mb - 0.00 in0.0 mm 0.00 in0.0 mm
05:35 AM 53.2°F11.8°C 41.7°F5.4°C 65% 5.8 mph S9.3 kmh S 11.5 mph18.5 kmh 30.04 in1017.3 mb - 0.00 in0.0 mm 0.00 in0.0 mm
05:40 AM 53.4°F11.9°C 41.5°F5.3°C 64% 8.1 mph S13.0 kmh S 11.5 mph18.5 kmh 30.03 in1016.9 mb - 0.00 in0.0 mm 0.00 in0.0 mm
05:45 AM 53.4°F11.9°C 41.9°F5.5°C 65% 5.8 mph S9.3 kmh S 10.4 mph16.7 kmh 30.03 in1016.9 mb - 0.00 in0.0 mm 0.00 in0.0 mm
05:50 AM 53.5°F11.9°C 42.0°F5.6°C 65% 6.9 mph S11.1 kmh S 11.5 mph18.5 kmh 30.03 in1016.9 mb - 0.00 in0.0 mm 0.00 in0.0 mm
05:55 AM 53.6°F12.0°C 42.1°F5.6°C 65% 6.9 mph S11.1 kmh S 10.4 mph16.7 kmh 30.03 in1016.9 mb - 0.00 in0.0 mm 0.00 in0.0 mm
06:00 AM 53.7°F12.1°C 41.8°F5.4°C 64% 8.1 mph S13.0 kmh S 12.7 mph20.4 kmh 30.04 in1017.3 mb - 0.00 in0.0 mm 0.00 in0.0 mm
06:10 AM 53.6°F12.0°C 42.5°F5.8°C 66% 5.8 mph S9.3 kmh S 8.1 mph13.0 kmh 30.04 in1017.3 mb - 0.00 in0.0 mm 0.00 in0.0 mm
06:15 AM 53.6°F12.0°C 41.7°F5.4°C 64% 8.1 mph S13.0 kmh S 10.4 mph16.7 kmh 30.04 in1017.3 mb - 0.00 in0.0 mm 0.00 in0.0 mm
06:20 AM 53.6°F12.0°C 42.1°F5.6°C 65% 5.8 mph S9.3 kmh S 11.5 mph18.5 kmh 30.04 in1017.3 mb - 0.00 in0.0 mm 0.00 in0.0 mm
06:25 AM 53.5°F11.9°C 42.4°F5.8°C 66% 5.8 mph S9.3 kmh S 6.9 mph11.1 kmh 30.04 in1017.3 mb - 0.00 in0.0 mm 0.00 in0.0 mm
06:30 AM 53.5°F11.9°C 42.4°F5.8°C 66% 5.8 mph S9.3 kmh S 11.5 mph18.5 kmh 30.04 in1017.3 mb - 0.00 in0.0 mm 0.00 in0.0 mm
06:35 AM 53.5°F11.9°C 42.8°F6.0°C 67% 5.8 mph SSW9.3 kmh SSW 6.9 mph11.1 kmh 30.04 in1017.3 mb - 0.00 in0.0 mm 0.00 in0.0 mm
06:40 AM 53.2°F11.8°C 42.9°F6.1°C 68% 6.9 mph SSW11.1 kmh SSW 9.2 mph14.8 kmh 30.04 in1017.3 mb - 0.00 in0.0 mm 0.00 in0.0 mm
06:45 AM 52.8°F11.6°C 43.7°F6.5°C 71% 5.8 mph S9.3 kmh S 9.2 mph14.8 kmh 30.04 in1017.3 mb - 0.00 in0.0 mm 0.00 in0.0 mm
06:50 AM 52.6°F11.4°C 43.5°F6.4°C 71% 5.8 mph S9.3 kmh S 10.4 mph16.7 kmh 30.04 in1017.3 mb - 0.00 in0.0 mm 0.00 in0.0 mm
06:55 AM 52.5°F11.4°C 44.1°F6.7°C 73% 5.8 mph S9.3 kmh S 10.4 mph16.7 kmh 30.04 in1017.3 mb - 0.00 in0.0 mm 0.00 in0.0 mm
07:00 AM 52.5°F11.4°C 44.1°F6.7°C 73% 5.8 mph S9.3 kmh S 11.5 mph18.5 kmh 30.04 in1017.3 mb - 0.00 in0.0 mm 0.00 in0.0 mm
07:10 AM 52.6°F11.4°C 44.2°F6.8°C 73% 6.9 mph S11.1 kmh S 11.5 mph18.5 kmh 30.04 in1017.3 mb - 0.00 in0.0 mm 0.00 in0.0 mm
07:15 AM 52.7°F11.5°C 44.3°F6.8°C 73% 8.1 mph S13.0 kmh S 13.8 mph22.2 kmh 30.04 in1017.3 mb - 0.00 in0.0 mm 0.00 in0.0 mm
07:20 AM 52.6°F11.4°C 44.6°F7.0°C 74% 8.1 mph SSW13.0 kmh SSW 10.4 mph16.7 kmh 30.04 in1017.3 mb - 0.00 in0.0 mm 0.00 in0.0 mm
07:25 AM 52.6°F11.4°C 44.5°F6.9°C 74% 6.9 mph S11.1 kmh S 11.5 mph18.5 kmh 30.04 in1017.3 mb - 0.00 in0.0 mm 0.00 in0.0 mm
07:30 AM 52.7°F11.5°C 45.0°F7.2°C 75% 8.1 mph S13.0 kmh S 11.5 mph18.5 kmh 30.04 in1017.3 mb - 0.00 in0.0 mm 0.00 in0.0 mm
07:35 AM 52.8°F11.6°C 45.4°F7.4°C 76% 6.9 mph S11.1 kmh S 11.5 mph18.5 kmh 30.04 in1017.3 mb - 0.00 in0.0 mm 0.00 in0.0 mm
07:40 AM 52.8°F11.6°C 45.4°F7.4°C 76% 6.9 mph S11.1 kmh S 10.4 mph16.7 kmh 30.04 in1017.3 mb - 0.01 in0.3 mm 0.01 in0.3 mm
07:45 AM 52.7°F11.5°C 45.3°F7.4°C 76% 6.9 mph S11.1 kmh S 10.4 mph16.7 kmh 30.04 in1017.3 mb - 0.01 in0.3 mm 0.01 in0.3 mm
07:50 AM 52.6°F11.4°C 45.2°F7.3°C 76% 5.8 mph S9.3 kmh S 11.5 mph18.5 kmh 30.03 in1016.9 mb - 0.01 in0.3 mm 0.01 in0.3 mm
07:55 AM 52.7°F11.5°C 45.7°F7.6°C 77% 4.6 mph S7.4 kmh S 9.2 mph14.8 kmh 30.03 in1016.9 mb - 0.01 in0.3 mm 0.01 in0.3 mm
08:00 AM 52.8°F11.6°C 45.8°F7.7°C 77% 9.2 mph S14.8 kmh S 10.4 mph16.7 kmh 30.03 in1016.9 mb - 0.01 in0.3 mm 0.01 in0.3 mm
08:10 AM 53.1°F11.7°C 46.0°F7.8°C 77% 6.9 mph S11.1 kmh S 11.5 mph18.5 kmh 30.03 in1016.9 mb - 0.01 in0.3 mm 0.01 in0.3 mm
08:15 AM 53.1°F11.7°C 45.7°F7.6°C 76% 8.1 mph S13.0 kmh S 11.5 mph18.5 kmh 30.03 in1016.9 mb - 0.01 in0.3 mm 0.01 in0.3 mm
08:20 AM 53.0°F11.7°C 46.0°F7.8°C 77% 6.9 mph SSW11.1 kmh SSW 11.5 mph18.5 kmh 30.03 in1016.9 mb - 0.01 in0.3 mm 0.01 in0.3 mm
08:25 AM 52.9°F11.6°C 46.3°F7.9°C 78% 8.1 mph S13.0 kmh S 11.5 mph18.5 kmh 30.03 in1016.9 mb - 0.01 in0.3 mm 0.01 in0.3 mm
08:30 AM 52.9°F11.6°C 46.2°F7.9°C 78% 10.4 mph S16.7 kmh S 12.7 mph20.4 kmh 30.03 in1016.9 mb - 0.01 in0.3 mm 0.01 in0.3 mm
08:35 AM 52.9°F11.6°C 46.6°F8.1°C 79% 8.1 mph S13.0 kmh S 12.7 mph20.4 kmh 30.03 in1016.9 mb - 0.01 in0.3 mm 0.01 in0.3 mm
08:40 AM 53.0°F11.7°C 47.0°F8.3°C 80% 8.1 mph SSW13.0 kmh SSW 17.3 mph27.8 kmh 30.03 in1016.9 mb - 0.00 in0.0 mm 0.01 in0.3 mm
08:45 AM 53.1°F11.7°C 47.4°F8.6°C 81% 6.9 mph SSW11.1 kmh SSW 10.4 mph16.7 kmh 30.03 in1016.9 mb - 0.00 in0.0 mm 0.01 in0.3 mm
08:50 AM 53.1°F11.7°C 47.4°F8.6°C 81% 8.1 mph SSW13.0 kmh SSW 11.5 mph18.5 kmh 30.03 in1016.9 mb - 0.00 in0.0 mm 0.01 in0.3 mm
08:55 AM 53.0°F11.7°C 47.7°F8.7°C 82% 10.4 mph S16.7 kmh S 19.6 mph31.5 kmh 30.03 in1016.9 mb - 0.00 in0.0 mm 0.01 in0.3 mm
09:00 AM 52.9°F11.6°C 47.8°F8.8°C 83% 8.1 mph SSW13.0 kmh SSW 12.7 mph20.4 kmh 30.03 in1016.9 mb - 0.00 in0.0 mm 0.01 in0.3 mm
09:10 AM 52.9°F11.6°C 48.2°F9.0°C 84% 11.5 mph S18.5 kmh S 15.0 mph24.1 kmh 30.02 in1016.6 mb - 0.00 in0.0 mm 0.01 in0.3 mm
09:15 AM 53.1°F11.7°C 48.7°F9.3°C 85% 9.2 mph S14.8 kmh S 11.5 mph18.5 kmh 30.02 in1016.6 mb - 0.00 in0.0 mm 0.01 in0.3 mm
09:20 AM 53.4°F11.9°C 49.0°F9.4°C 85% 11.5 mph S18.5 kmh S 13.8 mph22.2 kmh 30.02 in1016.6 mb - 0.00 in0.0 mm 0.01 in0.3 mm
09:25 AM 53.6°F12.0°C 48.9°F9.4°C 84% 10.4 mph S16.7 kmh S 13.8 mph22.2 kmh 30.02 in1016.6 mb - 0.00 in0.0 mm 0.01 in0.3 mm
09:30 AM 53.8°F12.1°C 49.7°F9.8°C 86% 9.2 mph SSW14.8 kmh SSW 15.0 mph24.1 kmh 30.02 in1016.6 mb - 0.00 in0.0 mm 0.01 in0.3 mm
09:35 AM 53.5°F11.9°C 49.5°F9.7°C 86% 10.4 mph SSW16.7 kmh SSW 15.0 mph24.1 kmh 30.02 in1016.6 mb - 0.00 in0.0 mm 0.01 in0.3 mm
09:40 AM 53.5°F11.9°C 49.7°F9.8°C 87% 8.1 mph SSW13.0 kmh SSW 11.5 mph18.5 kmh 30.02 in1016.6 mb - 0.00 in0.0 mm 0.01 in0.3 mm
09:45 AM 53.4°F11.9°C 49.7°F9.8°C 87% 12.7 mph SSW20.4 kmh SSW 19.6 mph31.5 kmh 30.02 in1016.6 mb - 0.00 in0.0 mm 0.01 in0.3 mm
09:50 AM 53.1°F11.7°C 49.6°F9.8°C 88% 10.4 mph S16.7 kmh S 11.5 mph18.5 kmh 30.02 in1016.6 mb - 0.01 in0.3 mm 0.02 in0.5 mm
09:55 AM 53.0°F11.7°C 49.6°F9.8°C 88% 12.7 mph SSW20.4 kmh SSW 16.1 mph25.9 kmh 30.02 in1016.6 mb - 0.01 in0.3 mm 0.02 in0.5 mm
10:00 AM 53.0°F11.7°C 49.8°F9.9°C 89% 8.1 mph S13.0 kmh S 15.0 mph24.1 kmh 30.02 in1016.6 mb - 0.01 in0.3 mm 0.02 in0.5 mm
10:10 AM 52.9°F11.6°C 49.7°F9.8°C 89% 10.4 mph S16.7 kmh S 13.8 mph22.2 kmh 30.02 in1016.6 mb - 0.01 in0.3 mm 0.02 in0.5 mm
10:15 AM 53.0°F11.7°C 50.1°F10.1°C 90% 8.1 mph SSW13.0 kmh SSW 12.7 mph20.4 kmh 30.02 in1016.6 mb - 0.01 in0.3 mm 0.02 in0.5 mm
10:20 AM 53.0°F11.7°C 49.9°F9.9°C 89% 12.7 mph S20.4 kmh S 16.1 mph25.9 kmh 30.02 in1016.6 mb - 0.01 in0.3 mm 0.02 in0.5 mm
10:25 AM 53.2°F11.8°C 50.3°F10.2°C 90% 11.5 mph SSW18.5 kmh SSW 15.0 mph24.1 kmh 30.02 in1016.6 mb - 0.01 in0.3 mm 0.02 in0.5 mm
10:30 AM 53.3°F11.8°C 50.4°F10.2°C 90% 9.2 mph SSW14.8 kmh SSW 18.4 mph29.6 kmh 30.02 in1016.6 mb - 0.01 in0.3 mm 0.02 in0.5 mm
10:35 AM 53.4°F11.9°C 50.5°F10.3°C 90% 11.5 mph S18.5 kmh S 15.0 mph24.1 kmh 30.02 in1016.6 mb - 0.01 in0.3 mm 0.02 in0.5 mm
10:40 AM 53.5°F11.9°C 50.7°F10.4°C 90% 12.7 mph S20.4 kmh S 17.3 mph27.8 kmh 30.02 in1016.6 mb - 0.01 in0.3 mm 0.02 in0.5 mm
10:45 AM 53.6°F12.0°C 50.8°F10.4°C 90% 9.2 mph SSW14.8 kmh SSW 13.8 mph22.2 kmh 30.02 in1016.6 mb - 0.01 in0.3 mm 0.02 in0.5 mm
10:50 AM 53.9°F12.2°C 51.0°F10.6°C 90% 11.5 mph SW18.5 kmh SW 16.1 mph25.9 kmh 30.01 in1016.3 mb - 0.00 in0.0 mm 0.02 in0.5 mm
10:55 AM 54.0°F12.2°C 51.1°F10.6°C 90% 9.2 mph SSW14.8 kmh SSW 19.6 mph31.5 kmh 30.02 in1016.6 mb - 0.00 in0.0 mm 0.02 in0.5 mm
11:00 AM 54.1°F12.3°C 51.2°F10.7°C 90% 9.2 mph SSW14.8 kmh SSW 10.4 mph16.7 kmh 30.01 in1016.3 mb - 0.00 in0.0 mm 0.02 in0.5 mm
11:10 AM 54.4°F12.4°C 51.8°F11.0°C 91% 8.1 mph SSW13.0 kmh SSW 12.7 mph20.4 kmh 30.02 in1016.6 mb - 0.00 in0.0 mm 0.02 in0.5 mm
11:15 AM 54.6°F12.6°C 52.0°F11.1°C 91% 6.9 mph SSW11.1 kmh SSW 12.7 mph20.4 kmh 30.02 in1016.6 mb - 0.00 in0.0 mm 0.02 in0.5 mm
11:20 AM 54.7°F12.6°C 52.1°F11.2°C 91% 8.1 mph SSW13.0 kmh SSW 11.5 mph18.5 kmh 30.02 in1016.6 mb - 0.00 in0.0 mm 0.02 in0.5 mm
11:25 AM 55.0°F12.8°C 52.4°F11.3°C 91% 6.9 mph SSW11.1 kmh SSW 12.7 mph20.4 kmh 30.02 in1016.6 mb - 0.00 in0.0 mm 0.02 in0.5 mm
11:30 AM 55.1°F12.8°C 52.5°F11.4°C 91% 8.1 mph SSW13.0 kmh SSW 17.3 mph27.8 kmh 30.02 in1016.6 mb - 0.00 in0.0 mm 0.02 in0.5 mm
11:35 AM 55.1°F12.8°C 52.5°F11.4°C 91% 10.4 mph SSW16.7 kmh SSW 13.8 mph22.2 kmh 30.01 in1016.3 mb - 0.01 in0.3 mm 0.02 in0.5 mm
11:40 AM 55.4°F13.0°C 52.9°F11.6°C 91% 11.5 mph SSW18.5 kmh SSW 19.6 mph31.5 kmh 30.02 in1016.6 mb - 0.01 in0.3 mm 0.02 in0.5 mm
11:45 AM 55.7°F13.2°C 53.1°F11.7°C 91% 9.2 mph SSW14.8 kmh SSW 13.8 mph22.2 kmh 30.01 in1016.3 mb - 0.01 in0.3 mm 0.02 in0.5 mm
11:50 AM 55.9°F13.3°C 53.3°F11.8°C 91% 8.1 mph SSW13.0 kmh SSW 9.2 mph14.8 kmh 30.02 in1016.6 mb - 0.01 in0.3 mm 0.02 in0.5 mm
11:55 AM 55.8°F13.2°C 53.2°F11.8°C 91% 9.2 mph SSW14.8 kmh SSW 15.0 mph24.1 kmh 30.01 in1016.3 mb - 0.01 in0.3 mm 0.02 in0.5 mm
12:00 PM 55.9°F13.3°C 53.4°F11.9°C 91% 10.4 mph SSW16.7 kmh SSW 16.1 mph25.9 kmh 30.01 in1016.3 mb - 0.01 in0.3 mm 0.02 in0.5 mm
12:10 PM 56.3°F13.5°C 53.7°F12.1°C 91% 9.2 mph SSW14.8 kmh SSW 13.8 mph22.2 kmh 30.01 in1016.3 mb - 0.02 in0.5 mm 0.03 in0.8 mm
12:15 PM 56.4°F13.6°C 53.8°F12.1°C 91% 8.1 mph SSW13.0 kmh SSW 10.4 mph16.7 kmh 30.01 in1016.3 mb - 0.02 in0.5 mm 0.03 in0.8 mm
12:20 PM 56.2°F13.4°C 53.6°F12.0°C 91% 11.5 mph SSW18.5 kmh SSW 15.0 mph24.1 kmh 30.01 in1016.3 mb - 0.02 in0.5 mm 0.03 in0.8 mm
12:25 PM 56.3°F13.5°C 53.7°F12.1°C 91% 9.2 mph SSW14.8 kmh SSW 13.8 mph22.2 kmh 30.02 in1016.6 mb - 0.02 in0.5 mm 0.03 in0.8 mm
12:30 PM 56.4°F13.6°C 53.8°F12.1°C 91% 10.4 mph SSW16.7 kmh SSW 13.8 mph22.2 kmh 30.01 in1016.3 mb - 0.02 in0.5 mm 0.04 in1.0 mm
12:35 PM 56.6°F13.7°C 54.0°F12.2°C 91% 10.4 mph SSW16.7 kmh SSW 16.1 mph25.9 kmh 30.02 in1016.6 mb - 0.02 in0.5 mm 0.04 in1.0 mm
12:40 PM 56.8°F13.8°C 54.2°F12.3°C 91% 10.4 mph SSW16.7 kmh SSW 11.5 mph18.5 kmh 30.02 in1016.6 mb - 0.02 in0.5 mm 0.04 in1.0 mm
12:45 PM 56.8°F13.8°C 54.5°F12.5°C 92% 9.2 mph SW14.8 kmh SW 11.5 mph18.5 kmh 30.02 in1016.6 mb - 0.02 in0.5 mm 0.04 in1.0 mm
12:50 PM 56.8°F13.8°C 54.5°F12.5°C 92% 10.4 mph SW16.7 kmh SW 15.0 mph24.1 kmh 30.02 in1016.6 mb - 0.02 in0.5 mm 0.04 in1.0 mm
12:55 PM 56.9°F13.8°C 54.3°F12.4°C 91% 10.4 mph SW16.7 kmh SW 13.8 mph22.2 kmh 30.02 in1016.6 mb - 0.02 in0.5 mm 0.04 in1.0 mm
01:00 PM 56.9°F13.8°C 54.6°F12.6°C 92% 8.1 mph SW13.0 kmh SW 11.5 mph18.5 kmh 30.02 in1016.6 mb - 0.02 in0.5 mm 0.04 in1.0 mm
01:10 PM 57.0°F13.9°C 54.7°F12.6°C 92% 11.5 mph SW18.5 kmh SW 17.3 mph27.8 kmh 30.01 in1016.3 mb - 0.02 in0.5 mm 0.05 in1.3 mm
01:15 PM 57.1°F13.9°C 54.8°F12.7°C 92% 9.2 mph SW14.8 kmh SW 11.5 mph18.5 kmh 30.02 in1016.6 mb - 0.02 in0.5 mm 0.05 in1.3 mm
01:20 PM 57.3°F14.1°C 55.0°F12.8°C 92% 11.5 mph SW18.5 kmh SW 12.7 mph20.4 kmh 30.01 in1016.3 mb - 0.02 in0.5 mm 0.05 in1.3 mm
01:25 PM 57.3°F14.1°C 55.0°F12.8°C 92% 11.5 mph SW18.5 kmh SW 19.6 mph31.5 kmh 30.02 in1016.6 mb - 0.02 in0.5 mm 0.05 in1.3 mm
01:30 PM 57.3°F14.1°C 54.7°F12.6°C 91% 12.7 mph SW20.4 kmh SW 13.8 mph22.2 kmh 30.02 in1016.6 mb - 0.02 in0.5 mm 0.06 in1.5 mm
01:35 PM 57.5°F14.2°C 55.2°F12.9°C 92% 9.2 mph SW14.8 kmh SW 13.8 mph22.2 kmh 30.02 in1016.6 mb - 0.02 in0.5 mm 0.06 in1.5 mm
01:40 PM 57.5°F14.2°C 55.2°F12.9°C 92% 10.4 mph SW16.7 kmh SW 19.6 mph31.5 kmh 30.02 in1016.6 mb - 0.02 in0.5 mm 0.06 in1.5 mm
01:45 PM 57.4°F14.1°C 55.1°F12.8°C 92% 10.4 mph SW16.7 kmh SW 12.7 mph20.4 kmh 30.02 in1016.6 mb - 0.02 in0.5 mm 0.06 in1.5 mm
01:50 PM 57.4°F14.1°C 55.1°F12.8°C 92% 11.5 mph SW18.5 kmh SW 12.7 mph20.4 kmh 30.02 in1016.6 mb - 0.02 in0.5 mm 0.06 in1.5 mm
01:55 PM 57.4°F14.1°C 55.1°F12.8°C 92% 9.2 mph SW14.8 kmh SW 13.8 mph22.2 kmh 30.02 in1016.6 mb - 0.02 in0.5 mm 0.06 in1.5 mm
02:00 PM 57.5°F14.2°C 54.9°F12.7°C 91% 11.5 mph SW18.5 kmh SW 16.1 mph25.9 kmh 30.02 in1016.6 mb - 0.02 in0.5 mm 0.06 in1.5 mm
02:10 PM 57.6°F14.2°C 55.0°F12.8°C 91% 11.5 mph SW18.5 kmh SW 15.0 mph24.1 kmh 30.03 in1016.9 mb - 0.02 in0.5 mm 0.06 in1.5 mm
02:15 PM 57.6°F14.2°C 55.0°F12.8°C 91% 11.5 mph SW18.5 kmh SW 19.6 mph31.5 kmh 30.03 in1016.9 mb - 0.02 in0.5 mm 0.06 in1.5 mm
02:20 PM 57.5°F14.2°C 54.9°F12.7°C 91% 10.4 mph SW16.7 kmh SW 17.3 mph27.8 kmh 30.03 in1016.9 mb - 0.02 in0.5 mm 0.06 in1.5 mm
02:25 PM 57.5°F14.2°C 54.9°F12.7°C 91% 12.7 mph SW20.4 kmh SW 19.6 mph31.5 kmh 30.03 in1016.9 mb - 0.02 in0.5 mm 0.06 in1.5 mm
02:30 PM 57.5°F14.2°C 54.9°F12.7°C 91% 11.5 mph WSW18.5 kmh WSW 15.0 mph24.1 kmh 30.03 in1016.9 mb - 0.01 in0.3 mm 0.06 in1.5 mm
02:35 PM 57.5°F14.2°C 54.9°F12.7°C 91% 10.4 mph SW16.7 kmh SW 15.0 mph24.1 kmh 30.03 in1016.9 mb - 0.01 in0.3 mm 0.06 in1.5 mm
02:40 PM 57.5°F14.2°C 54.9°F12.7°C 91% 10.4 mph WSW16.7 kmh WSW 11.5 mph18.5 kmh 30.03 in1016.9 mb - 0.01 in0.3 mm 0.06 in1.5 mm
02:45 PM 57.5°F14.2°C 54.9°F12.7°C 91% 12.7 mph SW20.4 kmh SW 16.1 mph25.9 kmh 30.03 in1016.9 mb - 0.00 in0.0 mm 0.06 in1.5 mm
02:50 PM 57.5°F14.2°C 54.9°F12.7°C 91% 10.4 mph SW16.7 kmh SW 15.0 mph24.1 kmh 30.03 in1016.9 mb - 0.00 in0.0 mm 0.06 in1.5 mm
02:55 PM 57.6°F14.2°C 55.0°F12.8°C 91% 10.4 mph SW16.7 kmh SW 15.0 mph24.1 kmh 30.03 in1016.9 mb - 0.00 in0.0 mm 0.06 in1.5 mm
03:00 PM 57.6°F14.2°C 55.0°F12.8°C 91% 9.2 mph SW14.8 kmh SW 12.7 mph20.4 kmh 30.03 in1016.9 mb - 0.00 in0.0 mm 0.06 in1.5 mm
03:10 PM 57.8°F14.3°C 55.2°F12.9°C 91% 9.2 mph SW14.8 kmh SW 15.0 mph24.1 kmh 30.03 in1016.9 mb - 0.00 in0.0 mm 0.06 in1.5 mm
03:15 PM 57.8°F14.3°C 54.9°F12.7°C 90% 9.2 mph SW14.8 kmh SW 11.5 mph18.5 kmh 30.03 in1016.9 mb - 0.00 in0.0 mm 0.06 in1.5 mm
03:20 PM 57.8°F14.3°C 54.9°F12.7°C 90% 10.4 mph SW16.7 kmh SW 15.0 mph24.1 kmh 30.03 in1016.9 mb - 0.00 in0.0 mm 0.06 in1.5 mm
03:25 PM 57.8°F14.3°C 54.9°F12.7°C 90% 9.2 mph SW14.8 kmh SW 15.0 mph24.1 kmh 30.03 in1016.9 mb - 0.00 in0.0 mm 0.06 in1.5 mm
03:30 PM 57.8°F14.3°C 54.9°F12.7°C 90% 10.4 mph SW16.7 kmh SW 16.1 mph25.9 kmh 30.03 in1016.9 mb - 0.00 in0.0 mm 0.06 in1.5 mm
03:35 PM 57.8°F14.3°C 54.9°F12.7°C 90% 10.4 mph SW16.7 kmh SW 12.7 mph20.4 kmh 30.03 in1016.9 mb - 0.00 in0.0 mm 0.06 in1.5 mm
03:40 PM 57.8°F14.3°C 54.9°F12.7°C 90% 9.2 mph SW14.8 kmh SW 13.8 mph22.2 kmh 30.03 in1016.9 mb - 0.00 in0.0 mm 0.06 in1.5 mm
03:45 PM 57.7°F14.3°C 55.1°F12.8°C 91% 10.4 mph SW16.7 kmh SW 16.1 mph25.9 kmh 30.04 in1017.3 mb - 0.00 in0.0 mm 0.06 in1.5 mm
03:50 PM 57.6°F14.2°C 55.0°F12.8°C 91% 11.5 mph SW18.5 kmh SW 13.8 mph22.2 kmh 30.03 in1016.9 mb - 0.00 in0.0 mm 0.06 in1.5 mm
03:55 PM 57.6°F14.2°C 54.9°F12.7°C 91% 10.4 mph SW16.7 kmh SW 11.5 mph18.5 kmh 30.04 in1017.3 mb - 0.00 in0.0 mm 0.06 in1.5 mm
04:00 PM 57.6°F14.2°C 55.0°F12.8°C 91% 11.5 mph SW18.5 kmh SW 15.0 mph24.1 kmh 30.04 in1017.3 mb - 0.00 in0.0 mm 0.06 in1.5 mm
04:10 PM 57.5°F14.2°C 54.9°F12.7°C 91% 9.2 mph SW14.8 kmh SW 13.8 mph22.2 kmh 30.04 in1017.3 mb - 0.00 in0.0 mm 0.06 in1.5 mm
04:15 PM 57.5°F14.2°C 54.6°F12.6°C 90% 11.5 mph SW18.5 kmh SW 12.7 mph20.4 kmh 30.04 in1017.3 mb - 0.00 in0.0 mm 0.06 in1.5 mm
04:20 PM 57.5°F14.2°C 54.6°F12.6°C 90% 12.7 mph WSW20.4 kmh WSW 16.1 mph25.9 kmh 30.04 in1017.3 mb - 0.00 in0.0 mm 0.06 in1.5 mm
04:25 PM 57.5°F14.2°C 54.6°F12.6°C 90% 9.2 mph SW14.8 kmh SW 13.8 mph22.2 kmh 30.04 in1017.3 mb - 0.00 in0.0 mm 0.06 in1.5 mm
04:30 PM 57.5°F14.2°C 54.6°F12.6°C 90% 11.5 mph WSW18.5 kmh WSW 12.7 mph20.4 kmh 30.04 in1017.3 mb - 0.00 in0.0 mm 0.06 in1.5 mm
04:35 PM 57.5°F14.2°C 54.6°F12.6°C 90% 13.8 mph SW22.2 kmh SW 17.3 mph27.8 kmh 30.05 in1017.6 mb - 0.00 in0.0 mm 0.06 in1.5 mm
04:40 PM 57.5°F14.2°C 54.6°F12.6°C 90% 8.1 mph SW13.0 kmh SW 11.5 mph18.5 kmh 30.05 in1017.6 mb - 0.00 in0.0 mm 0.06 in1.5 mm
04:45 PM 57.4°F14.1°C 54.5°F12.5°C 90% 11.5 mph SW18.5 kmh SW 16.1 mph25.9 kmh 30.05 in1017.6 mb - 0.00 in0.0 mm 0.06 in1.5 mm
04:50 PM 57.5°F14.2°C 54.6°F12.6°C 90% 9.2 mph SW14.8 kmh SW 12.7 mph20.4 kmh 30.05 in1017.6 mb - 0.00 in0.0 mm 0.06 in1.5 mm
04:55 PM 57.5°F14.2°C 54.6°F12.6°C 90% 11.5 mph SW18.5 kmh SW 15.0 mph24.1 kmh 30.05 in1017.6 mb - 0.00 in0.0 mm 0.06 in1.5 mm
05:00 PM 57.5°F14.2°C 54.6°F12.6°C 90% 8.1 mph SW13.0 kmh SW 11.5 mph18.5 kmh 30.05 in1017.6 mb - 0.00 in0.0 mm 0.06 in1.5 mm
05:10 PM 57.6°F14.2°C 54.7°F12.6°C 90% 8.1 mph SW13.0 kmh SW 13.8 mph22.2 kmh 30.05 in1017.6 mb - 0.00 in0.0 mm 0.06 in1.5 mm
05:15 PM 57.6°F14.2°C 54.7°F12.6°C 90% 8.1 mph WSW13.0 kmh WSW 11.5 mph18.5 kmh 30.05 in1017.6 mb - 0.00 in0.0 mm 0.06 in1.5 mm
05:20 PM 57.6°F14.2°C 54.7°F12.6°C 90% 9.2 mph SW14.8 kmh SW 12.7 mph20.4 kmh 30.05 in1017.6 mb - 0.00 in0.0 mm 0.06 in1.5 mm
05:25 PM 57.6°F14.2°C 54.7°F12.6°C 90% 8.1 mph SW13.0 kmh SW 11.5 mph18.5 kmh 30.05 in1017.6 mb - 0.00 in0.0 mm 0.06 in1.5 mm
05:30 PM 57.6°F14.2°C 54.7°F12.6°C 90% 8.1 mph SW13.0 kmh SW 11.5 mph18.5 kmh 30.04 in1017.3 mb - 0.00 in0.0 mm 0.06 in1.5 mm
05:35 PM 57.6°F14.2°C 54.7°F12.6°C 90% 8.1 mph SW13.0 kmh SW 11.5 mph18.5 kmh 30.05 in1017.6 mb - 0.00 in0.0 mm 0.06 in1.5 mm
05:40 PM 57.6°F14.2°C 54.7°F12.6°C 90% 8.1 mph WSW13.0 kmh WSW 10.4 mph16.7 kmh 30.05 in1017.6 mb - 0.00 in0.0 mm 0.06 in1.5 mm
05:45 PM 57.6°F14.2°C 54.4°F12.4°C 89% 9.2 mph SW14.8 kmh SW 10.4 mph16.7 kmh 30.05 in1017.6 mb - 0.00 in0.0 mm 0.06 in1.5 mm
05:50 PM 57.6°F14.2°C 54.4°F12.4°C 89% 9.2 mph SW14.8 kmh SW 11.5 mph18.5 kmh 30.05 in1017.6 mb - 0.00 in0.0 mm 0.06 in1.5 mm
05:55 PM 57.6°F14.2°C 54.4°F12.4°C 89% 8.1 mph WSW13.0 kmh WSW 11.5 mph18.5 kmh 30.05 in1017.6 mb - 0.00 in0.0 mm 0.06 in1.5 mm
06:00 PM 57.6°F14.2°C 54.7°F12.6°C 90% 9.2 mph WSW14.8 kmh WSW 11.5 mph18.5 kmh 30.05 in1017.6 mb - 0.00 in0.0 mm 0.06 in1.5 mm
06:10 PM 57.6°F14.2°C 54.3°F12.4°C 89% 9.2 mph WSW14.8 kmh WSW 11.5 mph18.5 kmh 30.05 in1017.6 mb - 0.00 in0.0 mm 0.06 in1.5 mm
06:15 PM 57.6°F14.2°C 54.4°F12.4°C 89% 9.2 mph WSW14.8 kmh WSW 11.5 mph18.5 kmh 30.05 in1017.6 mb - 0.00 in0.0 mm 0.06 in1.5 mm
06:20 PM 57.6°F14.2°C 54.4°F12.4°C 89% 9.2 mph WSW14.8 kmh WSW 11.5 mph18.5 kmh 30.05 in1017.6 mb - 0.00 in0.0 mm 0.06 in1.5 mm
06:25 PM 57.6°F14.2°C 54.4°F12.4°C 89% 6.9 mph WSW11.1 kmh WSW 11.5 mph18.5 kmh 30.05 in1017.6 mb - 0.00 in0.0 mm 0.06 in1.5 mm
06:30 PM 57.5°F14.2°C 54.3°F12.4°C 89% 5.8 mph WSW9.3 kmh WSW 8.1 mph13.0 kmh 30.05 in1017.6 mb - 0.00 in0.0 mm 0.06 in1.5 mm
06:35 PM 57.5°F14.2°C 54.6°F12.6°C 90% 8.1 mph SW13.0 kmh SW 12.7 mph20.4 kmh 30.05 in1017.6 mb - 0.00 in0.0 mm 0.06 in1.5 mm
06:40 PM 57.4°F14.1°C 54.5°F12.5°C 90% 9.2 mph WSW14.8 kmh WSW 11.5 mph18.5 kmh 30.05 in1017.6 mb - 0.00 in0.0 mm 0.06 in1.5 mm
06:45 PM 57.4°F14.1°C 54.5°F12.5°C 90% 8.1 mph WSW13.0 kmh WSW 11.5 mph18.5 kmh 30.05 in1017.6 mb - 0.00 in0.0 mm 0.06 in1.5 mm
06:50 PM 57.4°F14.1°C 54.5°F12.5°C 90% 9.2 mph SW14.8 kmh SW 13.8 mph22.2 kmh 30.05 in1017.6 mb - 0.00 in0.0 mm 0.06 in1.5 mm
06:55 PM 57.4°F14.1°C 54.5°F12.5°C 90% 9.2 mph WSW14.8 kmh WSW 10.4 mph16.7 kmh 30.05 in1017.6 mb - 0.00 in0.0 mm 0.06 in1.5 mm
07:00 PM 57.3°F14.1°C 54.4°F12.4°C 90% 8.1 mph SW13.0 kmh SW 11.5 mph18.5 kmh 30.06 in1017.9 mb - 0.00 in0.0 mm 0.06 in1.5 mm
07:10 PM 57.2°F14.0°C 54.3°F12.4°C 90% 10.4 mph WSW16.7 kmh WSW 12.7 mph20.4 kmh 30.06 in1017.9 mb - 0.00 in0.0 mm 0.06 in1.5 mm
07:15 PM 57.2°F14.0°C 54.3°F12.4°C 90% 6.9 mph SW11.1 kmh SW 8.1 mph13.0 kmh 30.06 in1017.9 mb - 0.00 in0.0 mm 0.06 in1.5 mm
07:20 PM 57.2°F14.0°C 54.3°F12.4°C 90% 8.1 mph SW13.0 kmh SW 10.4 mph16.7 kmh 30.06 in1017.9 mb - 0.00 in0.0 mm 0.06 in1.5 mm
07:25 PM 57.2°F14.0°C 54.3°F12.4°C 90% 9.2 mph SW14.8 kmh SW 11.5 mph18.5 kmh 30.05 in1017.6 mb - 0.00 in0.0 mm 0.06 in1.5 mm
07:30 PM 57.2°F14.0°C 54.2°F12.3°C 90% 8.1 mph SW13.0 kmh SW 12.7 mph20.4 kmh 30.06 in1017.9 mb - 0.00 in0.0 mm 0.06 in1.5 mm
07:35 PM 57.1°F13.9°C 54.2°F12.3°C 90% 5.8 mph SW9.3 kmh SW 12.7 mph20.4 kmh 30.05 in1017.6 mb - 0.00 in0.0 mm 0.06 in1.5 mm
07:40 PM 57.1°F13.9°C 54.2°F12.3°C 90% 8.1 mph WSW13.0 kmh WSW 12.7 mph20.4 kmh 30.06 in1017.9 mb - 0.00 in0.0 mm 0.06 in1.5 mm
07:45 PM 57.0°F13.9°C 54.1°F12.3°C 90% 6.9 mph WSW11.1 kmh WSW 11.5 mph18.5 kmh 30.06 in1017.9 mb - 0.00 in0.0 mm 0.06 in1.5 mm
07:50 PM 56.9°F13.8°C 54.0°F12.2°C 90% 6.9 mph SW11.1 kmh SW 11.5 mph18.5 kmh 30.06 in1017.9 mb - 0.00 in0.0 mm 0.06 in1.5 mm
07:55 PM 56.9°F13.8°C 54.0°F12.2°C 90% 6.9 mph WSW11.1 kmh WSW 10.4 mph16.7 kmh 30.06 in1017.9 mb - 0.00 in0.0 mm 0.06 in1.5 mm
08:00 PM 56.9°F13.8°C 54.0°F12.2°C 90% 6.9 mph SW11.1 kmh SW 12.7 mph20.4 kmh 30.06 in1017.9 mb - 0.00 in0.0 mm 0.06 in1.5 mm
08:10 PM 56.9°F13.8°C 54.0°F12.2°C 90% 6.9 mph SW11.1 kmh SW 8.1 mph13.0 kmh 30.06 in1017.9 mb - 0.00 in0.0 mm 0.06 in1.5 mm
08:15 PM 56.8°F13.8°C 54.2°F12.3°C 91% 9.2 mph WSW14.8 kmh WSW 10.4 mph16.7 kmh 30.07 in1018.3 mb - 0.00 in0.0 mm 0.06 in1.5 mm
08:20 PM 56.7°F13.7°C 54.1°F12.3°C 91% 5.8 mph SW9.3 kmh SW 9.2 mph14.8 kmh 30.07 in1018.3 mb - 0.00 in0.0 mm 0.06 in1.5 mm
08:25 PM 56.6°F13.7°C 54.0°F12.2°C 91% 6.9 mph WSW11.1 kmh WSW 8.1 mph13.0 kmh 30.07 in1018.3 mb - 0.01 in0.3 mm 0.07 in1.8 mm
08:30 PM 56.6°F13.7°C 54.0°F12.2°C 91% 6.9 mph WSW11.1 kmh WSW 9.2 mph14.8 kmh 30.07 in1018.3 mb - 0.01 in0.3 mm 0.07 in1.8 mm
08:35 PM 56.5°F13.6°C 53.9°F12.2°C 91% 6.9 mph SW11.1 kmh SW 11.5 mph18.5 kmh 30.07 in1018.3 mb - 0.01 in0.3 mm 0.07 in1.8 mm
08:40 PM 56.5°F13.6°C 53.9°F12.2°C 91% 8.1 mph SW13.0 kmh SW 12.7 mph20.4 kmh 30.07 in1018.3 mb - 0.01 in0.3 mm 0.07 in1.8 mm
08:45 PM 56.4°F13.6°C 54.1°F12.3°C 92% 9.2 mph SW14.8 kmh SW 11.5 mph18.5 kmh 30.07 in1018.3 mb - 0.01 in0.3 mm 0.07 in1.8 mm
08:50 PM 56.4°F13.6°C 54.1°F12.3°C 92% 8.1 mph WSW13.0 kmh WSW 11.5 mph18.5 kmh 30.07 in1018.3 mb - 0.01 in0.3 mm 0.07 in1.8 mm
08:55 PM 56.4°F13.6°C 54.1°F12.3°C 92% 5.8 mph SW9.3 kmh SW 6.9 mph11.1 kmh 30.07 in1018.3 mb - 0.01 in0.3 mm 0.07 in1.8 mm
09:00 PM 56.3°F13.5°C 54.0°F12.2°C 92% 8.1 mph WSW13.0 kmh WSW 10.4 mph16.7 kmh 30.07 in1018.3 mb - 0.01 in0.3 mm 0.07 in1.8 mm
09:10 PM 56.3°F13.5°C 54.0°F12.2°C 92% 5.8 mph SW9.3 kmh SW 6.9 mph11.1 kmh 30.08 in1018.6 mb - 0.01 in0.3 mm 0.07 in1.8 mm
09:15 PM 56.3°F13.5°C 54.0°F12.2°C 92% 6.9 mph SW11.1 kmh SW 11.5 mph18.5 kmh 30.07 in1018.3 mb - 0.01 in0.3 mm 0.07 in1.8 mm
09:20 PM 56.3°F13.5°C 54.0°F12.2°C 92% 8.1 mph SW13.0 kmh SW 11.5 mph18.5 kmh 30.07 in1018.3 mb - 0.01 in0.3 mm 0.07 in1.8 mm
09:25 PM 56.3°F13.5°C 54.1°F12.3°C 92% 5.8 mph SW9.3 kmh SW 10.4 mph16.7 kmh 30.08 in1018.6 mb - 0.00 in0.0 mm 0.07 in1.8 mm
09:30 PM 56.4°F13.6°C 54.1°F12.3°C 92% 6.9 mph SW11.1 kmh SW 9.2 mph14.8 kmh 30.07 in1018.3 mb - 0.00 in0.0 mm 0.07 in1.8 mm
09:35 PM 56.4°F13.6°C 54.1°F12.3°C 92% 6.9 mph SW11.1 kmh SW 11.5 mph18.5 kmh 30.07 in1018.3 mb - 0.00 in0.0 mm 0.07 in1.8 mm
09:40 PM 56.3°F13.5°C 54.1°F12.3°C 92% 6.9 mph SW11.1 kmh SW 10.4 mph16.7 kmh 30.07 in1018.3 mb - 0.00 in0.0 mm 0.07 in1.8 mm
09:45 PM 56.4°F13.6°C 54.1°F12.3°C 92% 8.1 mph SW13.0 kmh SW 11.5 mph18.5 kmh 30.07 in1018.3 mb - 0.00 in0.0 mm 0.07 in1.8 mm
09:50 PM 56.4°F13.6°C 54.1°F12.3°C 92% 5.8 mph SW9.3 kmh SW 11.5 mph18.5 kmh 30.08 in1018.6 mb - 0.00 in0.0 mm 0.07 in1.8 mm
09:55 PM 56.4°F13.6°C 54.1°F12.3°C 92% 6.9 mph SW11.1 kmh SW 9.2 mph14.8 kmh 30.08 in1018.6 mb - 0.00 in0.0 mm 0.07 in1.8 mm
10:00 PM 56.4°F13.6°C 54.1°F12.3°C 92% 5.8 mph SW9.3 kmh SW 8.1 mph13.0 kmh 30.08 in1018.6 mb - 0.00 in0.0 mm 0.07 in1.8 mm
10:10 PM 56.5°F13.6°C 54.2°F12.3°C 92% 6.9 mph SW11.1 kmh SW 10.4 mph16.7 kmh 30.08 in1018.6 mb - 0.00 in0.0 mm 0.07 in1.8 mm
10:15 PM 56.5°F13.6°C 54.2°F12.3°C 92% 5.8 mph SW9.3 kmh SW 9.2 mph14.8 kmh 30.08 in1018.6 mb - 0.00 in0.0 mm 0.07 in1.8 mm
10:20 PM 56.5°F13.6°C 54.2°F12.3°C 92% 5.8 mph SW9.3 kmh SW 8.1 mph13.0 kmh 30.07 in1018.3 mb - 0.00 in0.0 mm 0.07 in1.8 mm
10:25 PM 56.5°F13.6°C 54.2°F12.3°C 92% 5.8 mph SW9.3 kmh SW 9.2 mph14.8 kmh 30.08 in1018.6 mb - 0.00 in0.0 mm 0.07 in1.8 mm
10:30 PM 56.5°F13.6°C 54.2°F12.3°C 92% 5.8 mph SW9.3 kmh SW 8.1 mph13.0 kmh 30.08 in1018.6 mb - 0.00 in0.0 mm 0.07 in1.8 mm
10:35 PM 56.5°F13.6°C 54.2°F12.3°C 92% 4.6 mph SW7.4 kmh SW 9.2 mph14.8 kmh 30.08 in1018.6 mb - 0.00 in0.0 mm 0.07 in1.8 mm
10:40 PM 56.5°F13.6°C 54.2°F12.3°C 92% 5.8 mph SW9.3 kmh SW 8.1 mph13.0 kmh 30.08 in1018.6 mb - 0.00 in0.0 mm 0.07 in1.8 mm
10:45 PM 56.5°F13.6°C 54.2°F12.3°C 92% 4.6 mph SW7.4 kmh SW 11.5 mph18.5 kmh 30.08 in1018.6 mb - 0.00 in0.0 mm 0.07 in1.8 mm
10:50 PM 56.5°F13.6°C 54.2°F12.3°C 92% 5.8 mph SW9.3 kmh SW 9.2 mph14.8 kmh 30.08 in1018.6 mb - 0.00 in0.0 mm 0.07 in1.8 mm
10:55 PM 56.5°F13.6°C 54.2°F12.3°C 92% 6.9 mph SW11.1 kmh SW 10.4 mph16.7 kmh 30.08 in1018.6 mb - 0.00 in0.0 mm 0.07 in1.8 mm
11:00 PM 56.5°F13.6°C 54.2°F12.3°C 92% 6.9 mph SW11.1 kmh SW 9.2 mph14.8 kmh 30.08 in1018.6 mb - 0.00 in0.0 mm 0.94 in23.9 mm
11:10 PM 56.7°F13.7°C 54.4°F12.4°C 92% 6.9 mph SW11.1 kmh SW 8.1 mph13.0 kmh 30.08 in1018.6 mb - 0.00 in0.0 mm 0.94 in23.9 mm
11:15 PM 56.6°F13.7°C 54.3°F12.4°C 92% 6.9 mph SW11.1 kmh SW 12.7 mph20.4 kmh 30.08 in1018.6 mb - 0.00 in0.0 mm 0.94 in23.9 mm
11:20 PM 56.7°F13.7°C 54.4°F12.4°C 92% 8.1 mph SW13.0 kmh SW 11.5 mph18.5 kmh 30.07 in1018.3 mb - 0.00 in0.0 mm 0.94 in23.9 mm
11:25 PM 56.8°F13.8°C 54.5°F12.5°C 92% 5.8 mph SW9.3 kmh SW 6.9 mph11.1 kmh 30.07 in1018.3 mb - 0.00 in0.0 mm 0.94 in23.9 mm
11:30 PM 56.8°F13.8°C 54.5°F12.5°C 92% 8.1 mph SW13.0 kmh SW 8.1 mph13.0 kmh 30.07 in1018.3 mb - 0.00 in0.0 mm 0.94 in23.9 mm
11:35 PM 56.8°F13.8°C 54.5°F12.5°C 92% 5.8 mph SW9.3 kmh SW 8.1 mph13.0 kmh 30.07 in1018.3 mb - 0.00 in0.0 mm 0.94 in23.9 mm
11:40 PM 56.8°F13.8°C 54.5°F12.5°C 92% 4.6 mph SW7.4 kmh SW 5.8 mph9.3 kmh 30.07 in1018.3 mb - 0.01 in0.3 mm 0.01 in0.3 mm
11:45 PM 56.7°F13.7°C 54.4°F12.4°C 92% 4.6 mph SW7.4 kmh SW 8.1 mph13.0 kmh 30.07 in1018.3 mb - 0.01 in0.3 mm 0.01 in0.3 mm
11:50 PM 56.7°F13.7°C 54.4°F12.4°C 92% 5.8 mph SW9.3 kmh SW 6.9 mph11.1 kmh 30.07 in1018.3 mb - 0.02 in0.5 mm 0.02 in0.5 mm
11:55 PM 56.7°F13.7°C 54.4°F12.4°C 92% 6.9 mph SW11.1 kmh SW 10.4 mph16.7 kmh 30.07 in1018.3 mb - 0.02 in0.5 mm 0.02 in0.5 mm